Time;durP1;ratioP1;P1;durP2;ratioP2;P2;SDS_P1;SDS_P2;PMS_P1;PMS_P2;Temp;Humidity;BMP_temperature;BMP_pressure;BME280_temperature;BME280_humidity;BME280_pressure;Samples;Min_cycle;Max_cycle;Signal;HPM_P1;HPM_P2
2022/01/02 00:01:15;;;;;;;29.32;17.35;;;;;;;8.80;92.52;100888.12;2122028;82;20998;-74
2022/01/02 00:04:22;;;;;;;33.23;16.37;;;;;;;8.85;92.49;100888.55;2121801;82;21092;-80
2022/01/02 00:07:28;;;;;;;29.45;16.23;;;;;;;8.88;92.44;100881.66;2121776;83;21101;-74
2022/01/02 00:10:47;;;;;;;28.87;16.42;;;;;;;8.92;92.41;100877.75;2120630;82;21050;-73
2022/01/02 00:13:56;;;;;;;28.87;15.43;;;;;;;8.98;92.45;100877.69;2115974;83;21046;-74
2022/01/02 00:17:02;;;;;;;28.52;15.60;;;;;;;9.00;92.19;100868.30;2123285;82;21344;-73
2022/01/02 00:20:12;;;;;;;32.65;16.52;;;;;;;8.98;92.15;100864.45;2119113;82;21042;-74
2022/01/02 00:23:21;;;;;;;32.48;20.27;;;;;;;9.02;92.31;100864.55;2121422;82;21364;-76
2022/01/02 00:26:36;;;;;;;31.15;19.15;;;;;;;9.06;92.21;100865.92;2121082;82;21553;-74
2022/01/02 00:29:39;;;;;;;;;;;;;;;9.05;92.04;100866.08;2102479;82;21013;-74
2022/01/02 00:32:43;;;;;;;33.70;19.57;;;;;;;9.03;91.96;100866.20;2120159;82;20192;-75
2022/01/02 00:35:47;;;;;;;32.95;20.55;;;;;;;9.03;91.97;100865.38;2121631;82;21901;-75
2022/01/02 00:38:52;;;;;;;33.45;17.82;;;;;;;9.01;91.83;100862.02;2115393;82;21077;-76
2022/01/02 00:42:01;;;;;;;28.90;16.77;;;;;;;8.96;91.80;100853.19;2120809;82;21037;-74
2022/01/02 00:45:11;;;;;;;31.25;16.23;;;;;;;8.87;91.66;100853.99;2117482;82;21049;-75
2022/01/02 00:48:27;;;;;;;30.73;16.20;;;;;;;8.79;91.71;100851.23;2112324;82;21097;-75
2022/01/02 00:51:49;;;;;;;25.02;14.78;;;;;;;8.70;91.85;100835.20;2121687;82;20968;-75
2022/01/02 00:54:54;;;;;;;30.37;15.55;;;;;;;8.62;91.88;100824.95;2122885;82;21026;-75
2022/01/02 00:58:04;;;;;;;27.70;15.58;;;;;;;8.54;92.16;100812.40;2121204;82;21014;-75
2022/01/02 01:01:11;;;;;;;26.35;15.23;;;;;;;8.48;92.21;100801.05;2121890;82;21045;-74
2022/01/02 01:04:17;;;;;;;30.48;15.40;;;;;;;8.41;92.33;100803.88;2117249;82;21038;-75
2022/01/02 01:07:23;;;;;;;32.95;15.18;;;;;;;8.36;92.38;100807.38;2121054;82;21517;-75
2022/01/02 01:10:29;;;;;;;25.95;14.93;;;;;;;8.31;92.36;100799.86;2125467;82;21014;-74
2022/01/02 01:13:32;;;;;;;30.52;13.70;;;;;;;8.27;92.43;100795.31;2120031;82;20987;-75
2022/01/02 01:16:37;;;;;;;22.73;13.90;;;;;;;8.24;92.53;100800.05;2122271;82;21026;-74
2022/01/02 01:19:44;;;;;;;28.12;13.85;;;;;;;8.21;92.52;100815.69;2119024;82;21683;-75
2022/01/02 01:22:49;;;;;;;31.50;14.53;;;;;;;8.21;92.46;100805.11;2113566;82;21104;-76
2022/01/02 01:25:55;;;;;;;25.90;13.83;;;;;;;8.24;92.52;100811.94;2109345;82;21259;-75
2022/01/02 01:29:00;;;;;;;33.67;14.63;;;;;;;8.27;92.48;100812.98;2110020;82;21909;-75
2022/01/02 01:32:06;;;;;;;28.27;14.30;;;;;;;8.31;92.45;100813.09;2112416;82;20998;-75
2022/01/02 01:35:10;;;;;;;27.30;14.75;;;;;;;8.31;92.21;100809.95;2110575;82;21022;-75
2022/01/02 01:38:14;;;;;;;29.00;14.85;;;;;;;8.32;92.11;100810.78;2109667;82;21013;-74
2022/01/02 01:41:29;;;;;;;26.70;13.93;;;;;;;8.33;92.14;100807.16;2107146;82;21060;-74
2022/01/02 01:45:03;;;;;;;25.77;14.93;;;;;;;8.36;92.09;100796.80;2109942;82;21069;-74
2022/01/02 01:47:56;;;;;;;31.27;16.23;;;;;;;8.34;91.91;100787.70;2103972;83;21038;-75
2022/01/02 01:50:59;;;;;;;36.58;17.02;;;;;;;8.27;91.90;100784.73;2109143;82;21682;-77
2022/01/02 01:54:05;;;;;;;29.00;15.93;;;;;;;8.19;91.89;100782.42;2109664;83;21096;-74
2022/01/02 01:57:13;;;;;;;26.70;15.55;;;;;;;8.14;91.91;100788.59;2111670;82;21018;-75
2022/01/02 02:00:19;;;;;;;30.57;14.45;;;;;;;8.10;91.96;100778.78;2091956;83;21056;-74
2022/01/02 02:03:23;;;;;;;29.82;14.98;;;;;;;8.04;91.98;100783.29;2106270;83;21087;-75
2022/01/02 02:06:27;;;;;;;26.42;13.93;;;;;;;7.99;92.00;100782.36;2104800;82;21083;-74
2022/01/02 02:09:46;;;;;;;27.17;14.10;;;;;;;7.95;91.97;100778.33;2105386;82;21468;-75
2022/01/02 02:12:40;;;;;;;28.75;14.70;;;;;;;7.90;91.95;100781.84;2108951;82;20997;-75
2022/01/02 02:15:49;;;;;;;28.85;14.95;;;;;;;7.85;92.00;100768.19;2109492;82;21052;-74
2022/01/02 02:18:50;;;;;;;25.57;14.83;;;;;;;7.76;92.01;100753.97;2108595;82;21554;-75
2022/01/02 02:21:56;;;;;;;33.70;14.93;;;;;;;7.71;92.12;100756.17;2098809;82;21540;-75
2022/01/02 02:25:00;;;;;;;24.07;14.07;;;;;;;7.64;92.14;100740.03;2121190;82;21055;-75
2022/01/02 02:28:15;;;;;;;26.62;14.13;;;;;;;7.58;92.16;100730.00;2101827;83;21032;-74
2022/01/02 02:31:22;;;;;;;25.43;14.63;;;;;;;7.52;92.21;100745.06;2122808;82;21510;-74
2022/01/02 02:34:29;;;;;;;29.70;15.65;;;;;;;7.46;92.31;100744.27;2102218;82;21066;-73
2022/01/02 02:37:31;;;;;;;25.68;15.08;;;;;;;7.45;92.33;100744.39;2120683;82;21018;-75
2022/01/02 02:40:35;;;;;;;27.85;14.63;;;;;;;7.43;92.26;100731.30;2119364;82;21101;-77
2022/01/02 02:43:51;;;;;;;28.15;14.20;;;;;;;7.41;92.23;100722.21;2124726;82;21030;-75
2022/01/02 02:50:07;;;;;;;24.43;14.03;;;;;;;7.33;92.18;100711.95;2121946;82;21101;-75
2022/01/02 02:53:09;;;;;;;31.57;14.85;;;;;;;7.28;92.13;100705.73;2122913;82;21009;-75
2022/01/02 02:56:18;;;;;;;29.07;14.43;;;;;;;7.24;92.11;100700.88;2123130;82;21064;-74
2022/01/02 02:59:18;;;;;;;26.20;13.35;;;;;;;7.23;92.15;100699.17;2120576;82;21886;-74
2022/01/02 03:02:27;;;;;;;24.90;13.30;;;;;;;7.23;92.06;100692.58;2124334;82;20994;-75
2022/01/02 03:05:32;;;;;;;25.52;14.63;;;;;;;7.22;92.00;100691.75;2118499;82;21005;-75
2022/01/02 03:08:35;;;;;;;27.25;13.90;;;;;;;7.18;91.82;100691.19;2123267;82;21042;-78
2022/01/02 03:11:40;;;;;;;25.48;13.30;;;;;;;7.12;91.82;100691.71;2122656;82;21013;-75
2022/01/02 03:14:47;;;;;;;24.05;13.40;;;;;;;7.09;91.87;100684.52;2119190;82;21010;-76
2022/01/02 03:17:57;;;;;;;24.65;13.28;;;;;;;7.04;91.79;100675.69;2123238;82;21317;-76
2022/01/02 03:21:03;;;;;;;26.23;14.73;;;;;;;6.99;91.92;100665.17;2121002;82;21612;-76
2022/01/02 03:24:09;;;;;;;22.10;12.85;;;;;;;6.93;91.92;100658.61;2121774;82;21742;-74
2022/01/02 03:27:14;;;;;;;24.47;13.55;;;;;;;6.90;91.98;100645.69;2125102;82;21050;-75
2022/01/02 03:30:20;;;;;;;27.80;14.07;;;;;;;6.84;92.00;100642.22;2119398;82;21117;-75
2022/01/02 03:33:24;;;;;;;26.05;13.55;;;;;;;6.82;92.13;100640.22;2122872;82;21042;-75
2022/01/02 03:36:27;;;;;;;21.07;12.45;;;;;;;6.78;92.14;100629.07;2117796;82;21080;-75
2022/01/02 03:39:32;;;;;;;23.92;13.10;;;;;;;6.78;92.28;100616.37;2121353;82;21006;-75
2022/01/02 03:42:36;;;;;;;24.18;13.15;;;;;;;6.74;92.25;100610.53;2119355;82;21025;-75
2022/01/02 03:45:42;;;;;;;27.85;12.82;;;;;;;6.72;92.23;100601.91;2122959;82;21045;-77
2022/01/02 03:48:45;;;;;;;23.80;12.20;;;;;;;6.67;92.15;100591.77;2121080;82;21029;-75
2022/01/02 03:51:49;;;;;;;24.10;12.85;;;;;;;6.65;92.19;100579.19;2119811;82;21091;-76
2022/01/02 03:54:59;;;;;;;21.10;10.98;;;;;;;6.61;92.08;100573.80;2103096;82;21069;-75
2022/01/02 03:58:04;;;;;;;24.40;12.70;;;;;;;6.58;92.08;100567.95;2120947;82;21021;-78
2022/01/02 04:01:09;;;;;;;21.25;11.33;;;;;;;6.55;92.12;100567.73;2122360;82;21025;-75
2022/01/02 04:04:16;;;;;;;21.90;10.30;;;;;;;6.56;92.08;100564.61;2120307;82;21941;-75
2022/01/02 04:07:18;;;;;;;32.33;11.08;;;;;;;6.54;91.98;100559.97;2120979;82;21053;-77
2022/01/02 04:10:22;;;;;;;22.90;10.75;;;;;;;6.50;91.85;100557.59;2122603;82;21046;-75
2022/01/02 04:13:28;;;;;;;19.70;11.05;;;;;;;6.48;91.77;100560.00;2121294;82;21053;-75
2022/01/02 04:16:31;;;;;;;21.25;11.18;;;;;;;6.45;91.71;100548.41;2124044;82;21050;-76
2022/01/02 04:19:38;;;;;;;18.62;9.93;;;;;;;6.41;91.66;100547.80;2125561;82;21324;-76
2022/01/02 04:22:41;;;;;;;19.87;11.10;;;;;;;6.38;91.61;100532.73;2110376;82;21093;-75
2022/01/02 04:25:47;;;;;;;18.65;10.58;;;;;;;6.37;91.67;100526.64;2111785;82;21050;-75
2022/01/02 04:28:53;;;;;;;22.37;11.25;;;;;;;6.32;91.53;100505.59;2112377;82;21034;-76
2022/01/02 04:31:56;;;;;;;23.12;11.03;;;;;;;6.29;91.59;100501.41;2112682;82;21053;-76
2022/01/02 04:35:04;;;;;;;18.45;10.32;;;;;;;6.27;91.70;100484.39;2113838;82;21004;-78
2022/01/02 04:38:13;;;;;;;20.20;10.08;;;;;;;6.31;91.82;100472.27;2113143;82;21376;-75
2022/01/02 04:41:21;;;;;;;23.92;10.80;;;;;;;6.38;91.86;100476.06;2113233;82;21342;-75
2022/01/02 04:44:24;;;;;;;24.35;9.98;;;;;;;6.43;91.75;100474.71;2105899;82;21135;-75
2022/01/02 04:47:31;;;;;;;15.95;9.83;;;;;;;6.48;91.62;100463.78;2111862;82;20976;-75
2022/01/02 04:50:39;;;;;;;16.17;9.28;;;;;;;6.50;91.47;100460.05;2112795;82;20994;-77
2022/01/02 04:53:48;;;;;;;19.48;9.28;;;;;;;6.54;91.30;100452.70;2110779;82;20998;-78
2022/01/02 04:56:52;;;;;;;17.63;8.63;;;;;;;6.55;91.20;100450.41;2118136;82;21009;-75
2022/01/02 04:59:55;;;;;;;27.40;9.53;;;;;;;6.57;91.12;100441.06;2108179;82;21023;-75
2022/01/02 05:03:00;;;;;;;18.27;8.83;;;;;;;6.59;91.04;100436.46;2116693;82;20947;-76
2022/01/02 05:06:07;;;;;;;13.48;8.13;;;;;;;6.59;90.85;100420.19;2113557;82;21089;-76
2022/01/02 05:09:13;;;;;;;15.88;8.38;;;;;;;6.64;90.79;100436.91;2114891;82;21485;-75
2022/01/02 05:12:17;;;;;;;13.75;7.83;;;;;;;6.63;90.77;100446.63;2110222;82;21113;-80
2022/01/02 05:15:22;;;;;;;13.25;7.75;;;;;;;6.66;90.78;100470.58;2114232;82;21069;-79
2022/01/02 05:18:32;;;;;;;15.25;7.80;;;;;;;6.69;90.70;100480.37;2104065;82;21069;-80
2022/01/02 05:21:37;;;;;;;13.45;8.03;;;;;;;6.70;90.55;100475.47;2113729;82;21116;-77
2022/01/02 05:24:41;;;;;;;11.97;7.75;;;;;;;6.70;90.44;100463.59;2117119;82;20975;-75
2022/01/02 05:27:47;;;;;;;13.83;7.72;;;;;;;6.76;90.49;100462.23;2124767;82;21092;-75
2022/01/02 05:30:51;;;;;;;12.85;7.45;;;;;;;6.76;90.26;100451.67;2121653;82;21076;-77
2022/01/02 05:33:53;;;;;;;14.10;7.42;;;;;;;6.76;90.13;100433.67;2120390;82;20977;-75
2022/01/02 05:37:02;;;;;;;10.95;7.25;;;;;;;6.72;89.87;100414.17;2119779;82;21490;-75
2022/01/02 05:40:06;;;;;;;13.95;7.58;;;;;;;6.74;89.96;100419.32;2112775;82;21060;-75
2022/01/02 05:43:11;;;;;;;10.30;6.75;;;;;;;6.74;89.89;100414.05;2122220;82;21078;-75
2022/01/02 05:46:17;;;;;;;16.52;8.03;;;;;;;6.73;89.85;100401.35;2122065;82;21013;-76
2022/01/02 05:49:21;;;;;;;18.30;9.68;;;;;;;6.72;89.78;100403.62;2117983;82;21020;-77
2022/01/02 05:52:29;;;;;;;23.00;10.55;;;;;;;6.71;89.75;100406.41;2118216;82;21352;-75
2022/01/02 05:55:37;;;;;;;16.97;9.03;;;;;;;6.71;89.75;100401.13;2116633;82;21056;-80
2022/01/02 05:58:41;;;;;;;15.23;8.10;;;;;;;6.66;89.58;100388.34;2118704;82;21036;-78
2022/01/02 06:01:45;;;;;;;9.75;6.40;;;;;;;6.64;89.62;100373.13;2119061;82;21045;-75
2022/01/02 06:04:51;;;;;;;13.75;7.25;;;;;;;6.61;89.61;100381.31;2116256;82;20997;-82
2022/01/02 06:07:54;;;;;;;13.13;7.35;;;;;;;6.60;89.54;100377.51;2124042;82;21364;-75
2022/01/02 06:10:58;;;;;;;10.80;6.42;;;;;;;6.58;89.45;100376.80;2120221;82;21404;-75
2022/01/02 06:14:04;;;;;;;12.85;6.60;;;;;;;6.53;89.38;100370.60;2120416;82;21536;-75
2022/01/02 06:17:11;;;;;;;11.15;6.50;;;;;;;6.50;89.37;100360.33;2123757;82;21317;-77
2022/01/02 06:20:14;;;;;;;10.50;6.22;;;;;;;6.48;89.36;100340.71;2120196;82;21003;-75
2022/01/02 06:23:18;;;;;;;14.35;6.95;;;;;;;6.48;89.31;100335.93;2092954;83;21038;-75
2022/01/02 06:26:26;;;;;;;13.22;6.33;;;;;;;6.49;89.30;100330.50;2122231;82;21045;-82
2022/01/02 06:29:32;;;;;;;11.80;6.65;;;;;;;6.49;89.24;100329.19;2104148;82;21073;-75
2022/01/02 06:32:38;;;;;;;11.35;6.37;;;;;;;6.49;89.25;100329.67;2122837;82;21088;-79
2022/01/02 06:35:42;;;;;;;15.03;6.90;;;;;;;6.49;89.16;100320.45;2119332;82;21883;-76
2022/01/02 06:38:48;;;;;;;10.63;6.35;;;;;;;6.50;89.12;100331.33;2124393;82;21011;-75
2022/01/02 06:41:55;;;;;;;12.70;6.30;;;;;;;6.48;89.08;100322.26;2124068;82;21494;-78
2022/01/02 06:44:58;;;;;;;11.60;6.45;;;;;;;6.51;89.01;100327.74;2124830;82;21073;-76
2022/01/02 06:48:04;;;;;;;13.85;6.58;;;;;;;6.50;88.85;100333.97;2123699;82;21007;-77
2022/01/02 06:51:14;;;;;;;10.00;6.12;;;;;;;6.53;88.89;100336.33;2124457;82;20990;-75
2022/01/02 06:54:21;;;;;;;9.90;6.25;;;;;;;6.58;88.88;100328.85;2125612;82;21877;-85
2022/01/02 06:57:24;;;;;;;10.40;6.50;;;;;;;6.58;88.67;100320.94;2125369;82;20998;-75
2022/01/02 07:00:29;;;;;;;10.23;6.53;;;;;;;6.58;88.67;100322.27;2121305;82;21533;-75
2022/01/02 07:03:34;;;;;;;12.88;6.60;;;;;;;6.58;88.53;100324.90;2121823;82;21408;-76
2022/01/02 07:06:38;;;;;;;20.25;10.68;;;;;;;6.55;88.43;100327.81;2125548;81;21011;-76
2022/01/02 07:09:44;;;;;;;11.43;6.67;;;;;;;6.51;88.34;100315.88;2125440;82;21001;-75
2022/01/02 07:12:49;;;;;;;12.40;6.10;;;;;;;6.49;88.40;100321.77;2121761;82;21021;-75
2022/01/02 07:15:57;;;;;;;9.05;5.95;;;;;;;6.54;88.53;100325.33;2122417;82;21684;-78
2022/01/02 07:19:01;;;;;;;11.65;6.08;;;;;;;6.59;88.60;100327.91;2125754;82;21014;-76
2022/01/02 07:22:05;;;;;;;12.47;6.10;;;;;;;6.61;88.35;100328.58;2121169;82;21006;-75
2022/01/02 07:25:10;;;;;;;9.88;5.17;;;;;;;6.61;88.30;100329.07;2123470;82;21045;-75
2022/01/02 07:28:13;;;;;;;11.68;6.40;;;;;;;6.68;88.33;100317.02;2127403;82;21049;-75
2022/01/02 07:31:22;;;;;;;10.72;6.58;;;;;;;6.72;88.15;100324.50;2122694;82;21264;-76
2022/01/02 07:34:24;;;;;;;8.40;4.97;;;;;;;6.74;88.08;100300.16;2120620;82;21065;-75
2022/01/02 07:37:28;;;;;;;14.35;6.62;;;;;;;6.75;87.92;100293.07;2123816;82;21089;-83
2022/01/02 07:40:31;;;;;;;12.00;6.25;;;;;;;6.75;87.79;100299.66;2126299;82;21062;-76
2022/01/02 07:43:33;;;;;;;13.30;6.17;;;;;;;6.78;87.81;100293.28;2102919;82;21021;-78
2022/01/02 07:46:35;;;;;;;7.65;5.05;;;;;;;6.81;87.84;100290.37;2122924;82;20990;-82
2022/01/02 07:49:42;;;;;;;10.38;5.42;;;;;;;6.89;87.96;100288.70;2103619;82;21028;-75
2022/01/02 07:52:48;;;;;;;15.72;8.60;;;;;;;6.99;87.95;100282.61;2124442;82;21363;-75
2022/01/02 07:55:52;;;;;;;18.45;8.53;;;;;;;7.10;87.93;100274.06;2124026;82;21068;-72
2022/01/02 07:58:58;;;;;;;10.85;6.22;;;;;;;7.24;87.84;100275.92;2126177;82;21037;-71
2022/01/02 08:02:02;;;;;;;12.03;6.03;;;;;;;7.30;87.64;100268.27;2125139;82;21498;-74
2022/01/02 08:05:07;;;;;;;13.62;5.67;;;;;;;7.38;87.51;100262.28;2125824;82;21874;-73
2022/01/02 08:08:09;;;;;;;9.88;5.35;;;;;;;7.55;88.13;100260.71;2124653;82;21020;-74
2022/01/02 08:11:17;;;;;;;8.38;5.22;;;;;;;7.64;87.55;100261.98;2126944;82;20978;-75
2022/01/02 08:14:21;;;;;;;9.73;5.40;;;;;;;7.75;87.42;100264.11;2120780;82;21010;-75
2022/01/02 08:17:27;;;;;;;9.18;5.00;;;;;;;7.93;87.42;100262.35;2123004;82;21046;-75
2022/01/02 08:20:31;;;;;;;7.50;4.60;;;;;;;8.13;87.34;100262.26;2125532;82;21053;-74
2022/01/02 08:23:33;;;;;;;9.30;4.60;;;;;;;8.35;87.28;100261.85;2122732;82;21070;-74
2022/01/02 08:26:35;;;;;;;5.85;4.50;;;;;;;8.55;86.97;100261.76;2123516;82;21894;-74
2022/01/02 08:29:38;;;;;;;8.45;5.25;;;;;;;8.63;86.80;100254.73;2122624;82;21049;-74
2022/01/02 08:32:40;;;;;;;9.18;4.67;;;;;;;8.78;86.87;100255.03;2123364;82;21001;-74
2022/01/02 08:35:48;;;;;;;9.43;4.00;;;;;;;8.88;86.62;100255.79;2124472;82;21130;-75
2022/01/02 08:38:51;;;;;;;8.68;4.12;;;;;;;8.97;86.38;100253.55;2120615;82;21057;-74
2022/01/02 08:41:53;;;;;;;7.55;4.22;;;;;;;9.04;86.13;100248.48;2121334;82;21013;-75
2022/01/02 08:44:57;;;;;;;7.20;4.20;;;;;;;9.11;85.92;100253.98;2122891;82;21001;-76
2022/01/02 08:48:01;;;;;;;9.05;4.25;;;;;;;9.19;85.82;100248.75;2120438;82;21282;-76
2022/01/02 08:51:12;;;;;;;7.12;4.17;;;;;;;9.24;85.63;100239.03;2122555;83;21893;-74
2022/01/02 08:54:13;;;;;;;9.25;5.12;;;;;;;9.23;85.12;100238.18;2119607;82;21430;-76
2022/01/02 08:57:20;;;;;;;13.85;6.87;;;;;;;9.21;84.94;100234.88;2121482;82;21033;-76
2022/01/02 09:00:26;;;;;;;8.40;5.30;;;;;;;9.23;84.72;100221.47;2124119;82;21658;-77
2022/01/02 09:03:33;;;;;;;7.83;4.72;;;;;;;9.19;84.28;100227.58;2119159;82;21779;-73
2022/01/02 09:06:35;;;;;;;9.18;5.00;;;;;;;9.24;84.84;100230.59;2119488;82;21788;-72
2022/01/02 09:09:40;;;;;;;13.08;5.30;;;;;;;9.30;84.51;100231.29;2121375;81;21863;-72
2022/01/02 09:12:44;;;;;;;10.82;5.35;;;;;;;9.30;84.28;100226.00;2119889;82;21049;-72
2022/01/02 09:15:46;;;;;;;12.20;6.15;;;;;;;9.33;84.31;100223.03;2124185;82;21541;-73
2022/01/02 09:18:50;;;;;;;9.80;5.70;;;;;;;9.39;84.37;100218.43;2122229;82;21083;-75
2022/01/02 09:21:57;;;;;;;10.38;6.42;;;;;;;9.42;84.34;100215.47;2122634;82;21316;-74
2022/01/02 09:25:01;;;;;;;12.10;5.97;;;;;;;9.42;84.26;100214.14;2114063;82;21320;-76
2022/01/02 09:28:04;;;;;;;17.80;11.38;;;;;;;9.40;83.69;100198.92;2112898;81;21547;-77
2022/01/02 09:31:08;;;;;;;14.00;6.70;;;;;;;9.35;83.46;100187.97;2111634;81;21062;-76
2022/01/02 09:34:14;;;;;;;10.60;7.17;;;;;;;9.34;83.63;100187.61;2114272;81;21031;-75
2022/01/02 09:37:17;;;;;;;12.10;7.28;;;;;;;9.34;83.62;100194.73;2113511;81;21002;-77
2022/01/02 09:40:20;;;;;;;11.05;6.53;;;;;;;9.32;83.33;100182.98;2114202;81;20975;-77
2022/01/02 09:43:23;;;;;;;10.00;5.78;;;;;;;9.23;83.11;100171.16;2117028;81;21060;-77
2022/01/02 09:46:28;;;;;;;14.35;6.17;;;;;;;9.13;83.22;100171.28;2113975;81;21077;-77
2022/01/02 09:49:32;;;;;;;10.82;5.33;;;;;;;9.10;83.41;100175.08;2116840;82;21045;-77
2022/01/02 09:52:34;;;;;;;11.38;5.50;;;;;;;9.08;83.26;100171.74;2084495;82;22086;-75
2022/01/02 09:55:38;;;;;;;13.53;6.53;;;;;;;9.08;83.48;100171.74;2115123;82;21009;-76
2022/01/02 09:58:43;;;;;;;11.30;6.30;;;;;;;9.11;83.57;100189.13;2112200;82;21027;-76
2022/01/02 10:01:49;;;;;;;10.90;6.65;;;;;;;9.21;83.67;100171.34;2109168;82;21068;-76
2022/01/02 10:05:02;;;;;;;11.40;6.78;;;;;;;9.34;83.67;100163.78;2108020;82;21003;-76
2022/01/02 10:08:12;;;;;;;15.15;8.68;;;;;;;9.50;83.79;100178.93;2113863;82;21046;-77
2022/01/02 10:11:24;;;;;;;16.52;8.55;;;;;;;9.58;83.67;100182.13;2111215;82;21081;-76
2022/01/02 10:14:22;;;;;;;16.12;10.20;;;;;;;9.68;83.81;100178.84;2110119;82;21051;-75
2022/01/02 10:17:29;;;;;;;25.62;14.35;;;;;;;9.81;83.94;100177.90;2113404;82;21070;-76
2022/01/02 10:20:45;;;;;;;23.92;13.43;;;;;;;9.89;83.72;100177.11;2113275;82;20989;-75
2022/01/02 10:23:53;;;;;;;11.45;7.12;;;;;;;9.96;83.64;100164.03;2115347;82;20991;-75
2022/01/02 10:27:17;;;;;;;10.15;5.62;;;;;;;10.01;83.29;100173.16;2108326;82;21041;-75
2022/01/02 10:30:24;;;;;;;9.68;5.12;;;;;;;10.05;83.19;100157.75;2110577;82;21022;-76
2022/01/02 10:33:31;;;;;;;10.82;5.90;;;;;;;10.11;83.40;100149.17;2116484;82;21056;-73
2022/01/02 10:36:40;;;;;;;9.05;4.90;;;;;;;10.13;83.04;100144.52;2116068;82;21049;-81
2022/01/02 10:39:42;;;;;;;9.05;5.20;;;;;;;10.15;82.91;100140.38;2118268;82;21053;-82
2022/01/02 10:42:51;;;;;;;15.10;5.85;;;;;;;10.19;82.92;100137.73;2093476;82;21079;-82
2022/01/02 10:45:59;;;;;;;8.78;5.25;;;;;;;10.25;82.81;100133.12;2117392;82;20986;-79
2022/01/02 10:49:02;;;;;;;8.75;4.97;;;;;;;10.33;82.58;100142.41;2119842;82;21003;-77
2022/01/02 10:52:30;;;;;;;9.35;4.95;;;;;;;10.34;82.33;100133.98;2119503;82;21057;-76
2022/01/02 10:55:32;;;;;;;8.90;5.22;;;;;;;10.36;82.31;100130.17;2116795;82;21005;-77
2022/01/02 10:58:35;;;;;;;10.15;4.62;;;;;;;10.42;82.34;100128.19;2111892;82;21034;-76
2022/01/02 11:01:38;;;;;;;9.98;5.08;;;;;;;10.45;82.16;100117.74;2119366;82;21508;-75
2022/01/02 11:04:47;;;;;;;10.48;5.53;;;;;;;10.44;82.17;100110.25;2116841;82;21319;-75
2022/01/02 11:07:54;;;;;;;7.70;5.22;;;;;;;10.52;82.04;100094.84;2117208;82;21612;-73
2022/01/02 11:11:01;;;;;;;17.05;11.08;;;;;;;10.38;81.64;100075.62;2101203;82;20999;-75
2022/01/02 11:14:03;;;;;;;18.95;8.95;;;;;;;10.56;81.61;100093.53;2113935;82;21033;-76
2022/01/02 11:17:08;;;;;;;9.45;5.53;;;;;;;10.59;81.34;100072.44;2114926;82;20974;-76
2022/01/02 11:20:33;;;;;;;11.50;5.60;;;;;;;10.59;80.99;100061.83;2102033;82;21049;-73
2022/01/02 11:23:55;;;;;;;10.72;5.03;;;;;;;10.59;80.99;100061.83;2147643;81;22077;-73
2022/01/02 11:27:04;;;;;;;9.03;4.83;;;;;;;10.48;81.27;100037.83;2144739;81;20965;-74
2022/01/02 11:30:34;;;;;;;8.78;4.33;;;;;;;10.55;80.95;100059.51;2143547;81;20985;-81
2022/01/02 11:33:39;;;;;;;13.05;4.75;;;;;;;10.54;80.94;100050.41;2148574;81;21571;-74
2022/01/02 11:36:46;;;;;;;9.78;5.03;;;;;;;10.49;80.96;100047.42;2148110;80;21074;-74
2022/01/02 11:40:00;;;;;;;8.43;5.40;;;;;;;10.49;80.96;100047.42;2145039;81;21031;-76
2022/01/02 11:43:02;;;;;;;9.70;5.50;;;;;;;10.45;80.86;100030.20;2146651;81;21961;-74
2022/01/02 11:46:23;;;;;;;9.60;5.15;;;;;;;10.40;80.93;100021.41;2145867;81;20947;-76
2022/01/02 11:49:38;;;;;;;11.30;6.10;;;;;;;10.40;80.93;100021.41;2148526;81;21358;-75
2022/01/02 11:52:42;;;;;;;10.93;5.37;;;;;;;10.34;80.55;100018.11;2145257;80;20946;-76
2022/01/02 11:55:47;;;;;;;8.73;5.62;;;;;;;10.09;80.80;100002.68;2146760;81;21012;-74
2022/01/02 11:58:52;;;;;;;10.18;5.25;;;;;;;10.09;80.80;100002.68;2149523;81;21089;-74
2022/01/02 12:01:59;;;;;;;14.05;8.25;;;;;;;10.06;80.71;100010.47;2146735;81;21386;-74
2022/01/02 12:05:12;;;;;;;10.88;5.72;;;;;;;10.13;80.78;100017.25;2151441;80;20982;-74
2022/01/02 12:08:19;;;;;;;12.85;6.62;;;;;;;10.12;80.91;100016.92;2140735;81;21568;-74
2022/01/02 12:11:37;;;;;;;16.60;9.85;;;;;;;10.13;81.10;100015.09;2143271;81;21869;-74
2022/01/02 12:14:53;;;;;;;28.27;17.07;;;;;;;10.16;81.20;100011.61;2144327;81;21485;-73
2022/01/02 12:18:17;;;;;;;12.40;6.72;;;;;;;9.99;81.07;99987.43;2146430;81;21497;-76
2022/01/02 12:21:19;;;;;;;11.20;6.97;;;;;;;10.18;81.22;100014.93;2149052;81;21636;-83
2022/01/02 12:24:26;;;;;;;12.80;5.53;;;;;;;10.21;81.12;100018.58;2148108;81;21355;-76
2022/01/02 12:27:28;;;;;;;9.03;5.92;;;;;;;10.22;81.45;100011.44;2150089;81;21044;-75
2022/01/02 12:30:37;;;;;;;12.20;6.53;;;;;;;10.28;81.51;100010.83;2148044;81;20977;-75
2022/01/02 12:33:39;;;;;;;13.03;7.25;;;;;;;10.35;81.41;100005.67;2145482;81;20986;-76
2022/01/02 12:36:46;;;;;;;13.30;8.63;;;;;;;10.40;81.34;100001.52;2147999;81;21267;-75
2022/01/02 12:39:51;;;;;;;14.28;8.13;;;;;;;10.42;81.16;99992.08;2148708;80;21515;-75
2022/01/02 12:42:53;;;;;;;14.60;8.43;;;;;;;10.43;81.05;99995.05;2145879;81;21050;-76
2022/01/02 12:45:55;;;;;;;19.62;12.63;;;;;;;10.41;80.96;99994.38;2151316;80;21013;-76
2022/01/02 12:49:02;;;;;;;15.90;9.25;;;;;;;10.42;81.13;99990.75;2145616;81;21066;-76
2022/01/02 12:52:13;;;;;;;13.93;9.30;;;;;;;10.47;80.93;99985.74;2148673;81;20996;-76
2022/01/02 12:55:20;;;;;;;12.65;7.30;;;;;;;10.48;80.83;99975.48;2144655;81;21826;-75
2022/01/02 12:58:22;;;;;;;11.00;6.40;;;;;;;10.52;80.92;99979.44;2142171;81;20986;-76
2022/01/02 13:01:24;;;;;;;10.88;7.17;;;;;;;10.53;80.83;99982.41;2154331;80;20986;-75
2022/01/02 13:04:41;;;;;;;11.95;6.95;;;;;;;10.52;80.68;99974.13;2150393;81;21007;-75
2022/01/02 13:07:44;;;;;;;11.05;6.53;;;;;;;10.49;80.64;99971.83;2144241;81;21022;-73
2022/01/02 13:10:46;;;;;;;11.95;6.67;;;;;;;10.50;80.65;99970.81;2146712;80;21204;-74
2022/01/02 13:13:50;;;;;;;15.28;9.15;;;;;;;10.54;80.71;99972.14;2148722;81;21038;-74
2022/01/02 13:16:52;;;;;;;14.55;10.08;;;;;;;10.58;80.59;99966.81;2149753;81;21096;-73
2022/01/02 13:20:08;;;;;;;16.90;11.20;;;;;;;10.63;80.54;99961.01;2116004;81;21037;-73
2022/01/02 13:23:13;;;;;;;13.28;6.83;;;;;;;10.61;80.36;99947.90;2152102;81;21049;-72
2022/01/02 13:26:20;;;;;;;11.00;6.78;;;;;;;10.60;80.38;99947.58;2152592;80;20966;-87
2022/01/02 13:29:25;;;;;;;15.13;7.12;;;;;;;10.60;80.17;99942.27;2151886;80;22023;-75
2022/01/02 13:32:38;;;;;;;13.68;9.38;;;;;;;10.54;80.11;99939.81;2147094;81;21861;-77
2022/01/02 13:35:47;;;;;;;11.45;7.22;;;;;;;10.48;79.99;99930.39;2149052;81;21566;-73
2022/01/02 13:38:58;;;;;;;24.00;11.90;;;;;;;10.42;79.90;99925.77;2149352;81;21088;-78
2022/01/02 13:42:03;;;;;;;15.15;7.70;;;;;;;10.32;79.75;99914.02;2147297;80;21730;-74
2022/01/02 13:45:31;;;;;;;19.07;8.63;;;;;;;10.01;79.62;99882.89;2147908;80;21561;-76
2022/01/02 13:48:35;;;;;;;17.55;9.90;;;;;;;10.01;79.62;99882.89;2148329;80;21324;-74
2022/01/02 13:51:39;;;;;;;13.83;9.20;;;;;;;10.04;79.67;99899.78;2145298;81;21090;-71
2022/01/02 13:54:41;;;;;;;14.85;7.70;;;;;;;9.95;79.41;99887.55;2148905;81;21091;-78
2022/01/02 13:57:46;;;;;;;8.88;5.33;;;;;;;9.87;79.62;99872.98;2152035;81;21258;-79
2022/01/02 14:01:04;;;;;;;12.82;6.25;;;;;;;9.83;79.37;99876.47;2142827;81;20962;-75
2022/01/02 14:04:08;;;;;;;18.45;8.60;;;;;;;9.80;79.84;99884.77;2148197;81;21001;-71
2022/01/02 14:07:10;;;;;;;33.23;15.72;;;;;;;9.80;79.89;99883.44;2144853;81;21016;-71
2022/01/02 14:10:17;;;;;;;31.40;18.12;;;;;;;9.82;79.96;99881.42;2144930;81;21032;-77
2022/01/02 14:13:20;;;;;;;14.00;7.62;;;;;;;9.85;80.00;99866.55;2152560;81;21363;-73
2022/01/02 14:16:44;;;;;;;16.02;7.92;;;;;;;9.85;79.87;99862.56;2152964;81;21021;-73
2022/01/02 14:19:45;;;;;;;15.70;8.58;;;;;;;9.82;79.91;99866.84;2148373;80;21057;-70
2022/01/02 14:22:49;;;;;;;17.35;9.58;;;;;;;9.79;79.90;99857.91;2138177;81;21025;-71
2022/01/02 14:25:51;;;;;;;17.27;8.65;;;;;;;9.77;79.88;99851.98;2114843;82;21090;-72